sensor_id;sensor_type;location;lat;lon;timestamp;P1;durP1;ratioP1;P2;durP2;ratioP2
9102;SDS011;4587;51.434;6.788;2024-03-07T00:01:40;64.30;;;40.57;;
9102;SDS011;4587;51.434;6.788;2024-03-07T00:04:06;62.37;;;41.80;;
9102;SDS011;4587;51.434;6.788;2024-03-07T00:06:31;64.70;;;42.47;;
9102;SDS011;4587;51.434;6.788;2024-03-07T00:08:58;64.83;;;41.57;;
9102;SDS011;4587;51.434;6.788;2024-03-07T00:11:23;61.87;;;40.90;;
9102;SDS011;4587;51.434;6.788;2024-03-07T00:13:49;60.23;;;40.67;;
9102;SDS011;4587;51.434;6.788;2024-03-07T00:16:14;61.37;;;40.70;;
9102;SDS011;4587;51.434;6.788;2024-03-07T00:18:40;62.47;;;41.10;;
9102;SDS011;4587;51.434;6.788;2024-03-07T00:21:05;61.73;;;41.53;;
9102;SDS011;4587;51.434;6.788;2024-03-07T00:23:31;63.20;;;41.60;;
9102;SDS011;4587;51.434;6.788;2024-03-07T00:25:57;63.80;;;41.43;;
9102;SDS011;4587;51.434;6.788;2024-03-07T00:28:22;65.27;;;41.10;;
9102;SDS011;4587;51.434;6.788;2024-03-07T00:30:48;65.50;;;42.67;;
9102;SDS011;4587;51.434;6.788;2024-03-07T00:33:13;65.77;;;41.13;;
9102;SDS011;4587;51.434;6.788;2024-03-07T00:35:40;63.60;;;41.20;;
9102;SDS011;4587;51.434;6.788;2024-03-07T00:38:05;65.63;;;42.10;;
9102;SDS011;4587;51.434;6.788;2024-03-07T00:40:32;60.67;;;40.80;;
9102;SDS011;4587;51.434;6.788;2024-03-07T00:42:57;67.03;;;41.67;;
9102;SDS011;4587;51.434;6.788;2024-03-07T00:45:24;62.60;;;42.27;;
9102;SDS011;4587;51.434;6.788;2024-03-07T00:47:49;64.40;;;41.13;;
9102;SDS011;4587;51.434;6.788;2024-03-07T00:50:15;64.57;;;42.03;;
9102;SDS011;4587;51.434;6.788;2024-03-07T00:52:40;63.90;;;41.50;;
9102;SDS011;4587;51.434;6.788;2024-03-07T00:55:06;60.87;;;41.63;;
9102;SDS011;4587;51.434;6.788;2024-03-07T00:57:35;63.73;;;42.03;;
9102;SDS011;4587;51.434;6.788;2024-03-07T01:00:01;61.57;;;42.50;;
9102;SDS011;4587;51.434;6.788;2024-03-07T01:02:28;68.30;;;40.53;;
9102;SDS011;4587;51.434;6.788;2024-03-07T01:04:54;67.30;;;42.63;;
9102;SDS011;4587;51.434;6.788;2024-03-07T01:07:19;62.10;;;41.23;;
9102;SDS011;4587;51.434;6.788;2024-03-07T01:09:46;60.47;;;42.00;;
9102;SDS011;4587;51.434;6.788;2024-03-07T01:12:11;65.50;;;43.03;;
9102;SDS011;4587;51.434;6.788;2024-03-07T01:14:37;64.50;;;42.77;;
9102;SDS011;4587;51.434;6.788;2024-03-07T01:17:02;66.67;;;42.27;;
9102;SDS011;4587;51.434;6.788;2024-03-07T01:19:28;66.97;;;41.93;;
9102;SDS011;4587;51.434;6.788;2024-03-07T01:21:54;66.90;;;42.83;;
9102;SDS011;4587;51.434;6.788;2024-03-07T01:24:19;60.07;;;41.67;;
9102;SDS011;4587;51.434;6.788;2024-03-07T01:26:45;61.93;;;40.67;;
9102;SDS011;4587;51.434;6.788;2024-03-07T01:29:11;65.47;;;42.03;;
9102;SDS011;4587;51.434;6.788;2024-03-07T01:31:37;68.93;;;43.27;;
9102;SDS011;4587;51.434;6.788;2024-03-07T01:34:02;61.60;;;42.67;;
9102;SDS011;4587;51.434;6.788;2024-03-07T01:36:28;62.23;;;43.83;;
9102;SDS011;4587;51.434;6.788;2024-03-07T01:38:55;66.13;;;42.73;;
9102;SDS011;4587;51.434;6.788;2024-03-07T01:41:20;65.73;;;42.07;;
9102;SDS011;4587;51.434;6.788;2024-03-07T01:43:46;63.43;;;43.10;;
9102;SDS011;4587;51.434;6.788;2024-03-07T01:46:11;63.50;;;43.87;;
9102;SDS011;4587;51.434;6.788;2024-03-07T01:48:37;63.07;;;43.10;;
9102;SDS011;4587;51.434;6.788;2024-03-07T01:51:05;67.70;;;42.20;;
9102;SDS011;4587;51.434;6.788;2024-03-07T01:53:30;67.97;;;43.13;;
9102;SDS011;4587;51.434;6.788;2024-03-07T01:55:57;64.90;;;42.23;;
9102;SDS011;4587;51.434;6.788;2024-03-07T01:58:24;63.03;;;43.37;;
9102;SDS011;4587;51.434;6.788;2024-03-07T02:00:50;63.60;;;41.17;;
9102;SDS011;4587;51.434;6.788;2024-03-07T02:03:16;66.70;;;42.83;;
9102;SDS011;4587;51.434;6.788;2024-03-07T02:05:42;60.63;;;41.00;;
9102;SDS011;4587;51.434;6.788;2024-03-07T02:08:08;60.20;;;40.90;;
9102;SDS011;4587;51.434;6.788;2024-03-07T02:10:34;61.63;;;41.07;;
9102;SDS011;4587;51.434;6.788;2024-03-07T02:12:59;64.63;;;42.00;;
9102;SDS011;4587;51.434;6.788;2024-03-07T02:15:28;66.23;;;42.40;;
9102;SDS011;4587;51.434;6.788;2024-03-07T02:17:53;64.37;;;42.00;;
9102;SDS011;4587;51.434;6.788;2024-03-07T02:20:19;64.17;;;42.73;;
9102;SDS011;4587;51.434;6.788;2024-03-07T02:22:45;66.10;;;41.40;;
9102;SDS011;4587;51.434;6.788;2024-03-07T02:25:11;63.50;;;41.67;;
9102;SDS011;4587;51.434;6.788;2024-03-07T02:27:37;69.83;;;43.43;;
9102;SDS011;4587;51.434;6.788;2024-03-07T02:30:03;66.27;;;42.60;;
9102;SDS011;4587;51.434;6.788;2024-03-07T02:32:30;62.03;;;42.43;;
9102;SDS011;4587;51.434;6.788;2024-03-07T02:34:56;62.70;;;42.90;;
9102;SDS011;4587;51.434;6.788;2024-03-07T02:37:22;65.30;;;43.17;;
9102;SDS011;4587;51.434;6.788;2024-03-07T02:39:47;66.40;;;43.53;;
9102;SDS011;4587;51.434;6.788;2024-03-07T02:42:13;66.53;;;42.13;;
9102;SDS011;4587;51.434;6.788;2024-03-07T02:44:39;66.17;;;42.07;;
9102;SDS011;4587;51.434;6.788;2024-03-07T02:47:05;64.13;;;41.73;;
9102;SDS011;4587;51.434;6.788;2024-03-07T02:49:31;66.60;;;41.77;;
9102;SDS011;4587;51.434;6.788;2024-03-07T02:51:57;63.10;;;41.73;;
9102;SDS011;4587;51.434;6.788;2024-03-07T02:54:22;64.07;;;42.20;;
9102;SDS011;4587;51.434;6.788;2024-03-07T02:56:48;64.97;;;42.63;;
9102;SDS011;4587;51.434;6.788;2024-03-07T02:59:13;64.23;;;42.87;;
9102;SDS011;4587;51.434;6.788;2024-03-07T03:01:39;65.13;;;42.20;;
9102;SDS011;4587;51.434;6.788;2024-03-07T03:04:04;70.27;;;43.80;;
9102;SDS011;4587;51.434;6.788;2024-03-07T03:06:30;67.83;;;43.43;;
9102;SDS011;4587;51.434;6.788;2024-03-07T03:08:56;66.20;;;43.97;;
9102;SDS011;4587;51.434;6.788;2024-03-07T03:11:22;67.00;;;43.43;;
9102;SDS011;4587;51.434;6.788;2024-03-07T03:13:47;66.60;;;41.37;;
9102;SDS011;4587;51.434;6.788;2024-03-07T03:16:13;63.10;;;42.23;;
9102;SDS011;4587;51.434;6.788;2024-03-07T03:18:39;63.80;;;42.33;;
9102;SDS011;4587;51.434;6.788;2024-03-07T03:21:04;67.37;;;43.00;;
9102;SDS011;4587;51.434;6.788;2024-03-07T03:23:30;61.80;;;42.70;;
9102;SDS011;4587;51.434;6.788;2024-03-07T03:25:56;65.23;;;41.73;;
9102;SDS011;4587;51.434;6.788;2024-03-07T03:28:22;64.40;;;42.27;;
9102;SDS011;4587;51.434;6.788;2024-03-07T03:30:48;67.23;;;43.07;;
9102;SDS011;4587;51.434;6.788;2024-03-07T03:33:14;65.70;;;41.43;;
9102;SDS011;4587;51.434;6.788;2024-03-07T03:35:43;63.23;;;41.47;;
9102;SDS011;4587;51.434;6.788;2024-03-07T03:38:08;63.30;;;42.83;;
9102;SDS011;4587;51.434;6.788;2024-03-07T03:40:34;66.27;;;41.57;;
9102;SDS011;4587;51.434;6.788;2024-03-07T03:43:00;64.10;;;41.77;;
9102;SDS011;4587;51.434;6.788;2024-03-07T03:45:26;63.10;;;41.33;;
9102;SDS011;4587;51.434;6.788;2024-03-07T03:47:52;63.10;;;42.83;;
9102;SDS011;4587;51.434;6.788;2024-03-07T03:50:17;61.87;;;41.67;;
9102;SDS011;4587;51.434;6.788;2024-03-07T03:52:43;60.97;;;42.47;;
9102;SDS011;4587;51.434;6.788;2024-03-07T03:55:09;62.13;;;40.07;;
9102;SDS011;4587;51.434;6.788;2024-03-07T03:57:36;66.00;;;42.23;;
9102;SDS011;4587;51.434;6.788;2024-03-07T04:00:07;68.50;;;43.53;;
9102;SDS011;4587;51.434;6.788;2024-03-07T04:02:40;62.73;;;42.07;;
9102;SDS011;4587;51.434;6.788;2024-03-07T04:05:07;61.40;;;42.27;;
9102;SDS011;4587;51.434;6.788;2024-03-07T04:07:34;61.63;;;42.10;;
9102;SDS011;4587;51.434;6.788;2024-03-07T04:10:00;62.33;;;42.27;;
9102;SDS011;4587;51.434;6.788;2024-03-07T04:12:31;65.47;;;40.83;;
9102;SDS011;4587;51.434;6.788;2024-03-07T04:14:57;57.90;;;40.87;;
9102;SDS011;4587;51.434;6.788;2024-03-07T04:17:23;59.67;;;40.20;;
9102;SDS011;4587;51.434;6.788;2024-03-07T04:19:48;59.03;;;40.93;;
9102;SDS011;4587;51.434;6.788;2024-03-07T04:22:14;60.60;;;40.73;;
9102;SDS011;4587;51.434;6.788;2024-03-07T04:24:40;58.33;;;40.63;;
9102;SDS011;4587;51.434;6.788;2024-03-07T04:27:06;57.60;;;38.70;;
9102;SDS011;4587;51.434;6.788;2024-03-07T04:29:32;60.27;;;40.23;;
9102;SDS011;4587;51.434;6.788;2024-03-07T04:31:59;64.60;;;41.43;;
9102;SDS011;4587;51.434;6.788;2024-03-07T04:34:26;67.00;;;40.17;;
9102;SDS011;4587;51.434;6.788;2024-03-07T04:36:52;59.47;;;41.20;;
9102;SDS011;4587;51.434;6.788;2024-03-07T04:39:17;61.33;;;40.83;;
9102;SDS011;4587;51.434;6.788;2024-03-07T04:41:59;60.37;;;39.43;;
9102;SDS011;4587;51.434;6.788;2024-03-07T04:44:30;66.37;;;40.93;;
9102;SDS011;4587;51.434;6.788;2024-03-07T04:46:57;57.03;;;39.30;;
9102;SDS011;4587;51.434;6.788;2024-03-07T04:49:24;59.20;;;39.60;;
9102;SDS011;4587;51.434;6.788;2024-03-07T04:51:54;56.30;;;39.30;;
9102;SDS011;4587;51.434;6.788;2024-03-07T04:54:21;58.63;;;40.57;;
9102;SDS011;4587;51.434;6.788;2024-03-07T04:56:48;54.50;;;38.63;;
9102;SDS011;4587;51.434;6.788;2024-03-07T04:59:15;59.00;;;40.40;;
9102;SDS011;4587;51.434;6.788;2024-03-07T05:01:41;61.93;;;39.83;;
9102;SDS011;4587;51.434;6.788;2024-03-07T05:04:07;60.93;;;40.67;;
9102;SDS011;4587;51.434;6.788;2024-03-07T05:06:33;58.40;;;40.47;;
9102;SDS011;4587;51.434;6.788;2024-03-07T05:09:02;58.73;;;42.27;;
9102;SDS011;4587;51.434;6.788;2024-03-07T05:11:29;59.67;;;41.03;;
9102;SDS011;4587;51.434;6.788;2024-03-07T05:13:55;59.63;;;40.47;;
9102;SDS011;4587;51.434;6.788;2024-03-07T05:16:22;59.40;;;40.17;;
9102;SDS011;4587;51.434;6.788;2024-03-07T05:18:51;58.27;;;40.00;;
9102;SDS011;4587;51.434;6.788;2024-03-07T05:21:17;61.03;;;40.90;;
9102;SDS011;4587;51.434;6.788;2024-03-07T05:24:02;58.13;;;40.03;;
9102;SDS011;4587;51.434;6.788;2024-03-07T05:26:29;59.33;;;40.20;;
9102;SDS011;4587;51.434;6.788;2024-03-07T05:28:59;58.33;;;39.90;;
9102;SDS011;4587;51.434;6.788;2024-03-07T05:31:33;60.50;;;40.50;;
9102;SDS011;4587;51.434;6.788;2024-03-07T05:34:02;54.97;;;38.47;;
9102;SDS011;4587;51.434;6.788;2024-03-07T05:36:32;61.00;;;39.33;;
9102;SDS011;4587;51.434;6.788;2024-03-07T05:38:58;61.00;;;39.77;;
9102;SDS011;4587;51.434;6.788;2024-03-07T05:41:24;54.80;;;38.53;;
9102;SDS011;4587;51.434;6.788;2024-03-07T05:43:53;57.07;;;38.73;;
9102;SDS011;4587;51.434;6.788;2024-03-07T05:46:19;56.30;;;37.73;;
9102;SDS011;4587;51.434;6.788;2024-03-07T05:48:45;61.83;;;39.83;;
9102;SDS011;4587;51.434;6.788;2024-03-07T05:51:15;54.60;;;39.67;;
9102;SDS011;4587;51.434;6.788;2024-03-07T05:53:40;51.77;;;38.23;;
9102;SDS011;4587;51.434;6.788;2024-03-07T05:56:06;60.70;;;39.50;;
9102;SDS011;4587;51.434;6.788;2024-03-07T05:58:33;54.73;;;38.07;;
9102;SDS011;4587;51.434;6.788;2024-03-07T06:00:58;60.73;;;40.03;;
9102;SDS011;4587;51.434;6.788;2024-03-07T06:03:24;54.07;;;37.63;;
9102;SDS011;4587;51.434;6.788;2024-03-07T06:05:50;53.63;;;36.97;;
9102;SDS011;4587;51.434;6.788;2024-03-07T06:08:16;52.73;;;38.80;;
9102;SDS011;4587;51.434;6.788;2024-03-07T06:10:43;55.67;;;39.47;;
9102;SDS011;4587;51.434;6.788;2024-03-07T06:13:13;52.23;;;37.47;;
9102;SDS011;4587;51.434;6.788;2024-03-07T06:15:42;50.13;;;37.10;;
9102;SDS011;4587;51.434;6.788;2024-03-07T06:18:08;51.20;;;36.90;;
9102;SDS011;4587;51.434;6.788;2024-03-07T06:20:35;51.63;;;38.10;;
9102;SDS011;4587;51.434;6.788;2024-03-07T06:23:02;50.40;;;36.43;;
9102;SDS011;4587;51.434;6.788;2024-03-07T06:25:30;54.07;;;36.80;;
9102;SDS011;4587;51.434;6.788;2024-03-07T06:28:02;51.63;;;36.70;;
9102;SDS011;4587;51.434;6.788;2024-03-07T06:30:40;52.03;;;36.40;;
9102;SDS011;4587;51.434;6.788;2024-03-07T06:33:07;52.50;;;37.57;;
9102;SDS011;4587;51.434;6.788;2024-03-07T06:35:36;51.00;;;36.10;;
9102;SDS011;4587;51.434;6.788;2024-03-07T06:38:04;52.37;;;35.83;;
9102;SDS011;4587;51.434;6.788;2024-03-07T06:40:36;51.33;;;36.27;;
9102;SDS011;4587;51.434;6.788;2024-03-07T06:43:02;55.73;;;36.83;;
9102;SDS011;4587;51.434;6.788;2024-03-07T06:45:37;53.67;;;36.77;;
9102;SDS011;4587;51.434;6.788;2024-03-07T06:48:07;50.03;;;36.73;;
9102;SDS011;4587;51.434;6.788;2024-03-07T06:50:36;51.87;;;36.10;;
9102;SDS011;4587;51.434;6.788;2024-03-07T06:53:02;49.57;;;34.23;;
9102;SDS011;4587;51.434;6.788;2024-03-07T06:55:28;49.03;;;36.10;;
9102;SDS011;4587;51.434;6.788;2024-03-07T06:57:54;50.83;;;34.43;;
9102;SDS011;4587;51.434;6.788;2024-03-07T07:00:20;49.10;;;34.93;;
9102;SDS011;4587;51.434;6.788;2024-03-07T07:02:46;44.30;;;34.77;;
9102;SDS011;4587;51.434;6.788;2024-03-07T07:05:13;48.97;;;34.90;;
9102;SDS011;4587;51.434;6.788;2024-03-07T07:07:43;47.80;;;34.20;;
9102;SDS011;4587;51.434;6.788;2024-03-07T07:10:09;45.37;;;33.67;;
9102;SDS011;4587;51.434;6.788;2024-03-07T07:12:43;45.57;;;33.40;;
9102;SDS011;4587;51.434;6.788;2024-03-07T07:15:10;44.57;;;32.70;;
9102;SDS011;4587;51.434;6.788;2024-03-07T07:17:37;45.57;;;33.67;;
9102;SDS011;4587;51.434;6.788;2024-03-07T07:20:03;43.40;;;32.23;;
9102;SDS011;4587;51.434;6.788;2024-03-07T07:22:35;41.43;;;33.43;;
9102;SDS011;4587;51.434;6.788;2024-03-07T07:25:02;40.70;;;32.30;;
9102;SDS011;4587;51.434;6.788;2024-03-07T07:27:29;41.57;;;31.57;;
9102;SDS011;4587;51.434;6.788;2024-03-07T07:29:56;41.87;;;30.73;;
9102;SDS011;4587;51.434;6.788;2024-03-07T07:32:22;38.17;;;30.37;;
9102;SDS011;4587;51.434;6.788;2024-03-07T07:34:48;37.70;;;30.97;;
9102;SDS011;4587;51.434;6.788;2024-03-07T07:37:14;36.77;;;30.23;;
9102;SDS011;4587;51.434;6.788;2024-03-07T07:39:39;32.50;;;28.80;;
9102;SDS011;4587;51.434;6.788;2024-03-07T07:42:05;39.13;;;29.93;;
9102;SDS011;4587;51.434;6.788;2024-03-07T07:44:30;35.03;;;28.77;;
9102;SDS011;4587;51.434;6.788;2024-03-07T07:46:56;36.90;;;29.60;;
9102;SDS011;4587;51.434;6.788;2024-03-07T07:49:22;35.33;;;28.77;;
9102;SDS011;4587;51.434;6.788;2024-03-07T07:51:47;34.60;;;29.33;;
9102;SDS011;4587;51.434;6.788;2024-03-07T07:54:13;33.77;;;29.40;;
9102;SDS011;4587;51.434;6.788;2024-03-07T07:56:39;35.47;;;28.20;;
9102;SDS011;4587;51.434;6.788;2024-03-07T07:59:05;33.77;;;29.83;;
9102;SDS011;4587;51.434;6.788;2024-03-07T08:01:32;36.50;;;28.60;;
9102;SDS011;4587;51.434;6.788;2024-03-07T08:03:59;32.50;;;28.10;;
9102;SDS011;4587;51.434;6.788;2024-03-07T08:06:24;35.03;;;28.27;;
9102;SDS011;4587;51.434;6.788;2024-03-07T08:08:50;31.60;;;26.60;;
9102;SDS011;4587;51.434;6.788;2024-03-07T08:11:15;30.97;;;26.77;;
9102;SDS011;4587;51.434;6.788;2024-03-07T08:13:41;32.10;;;27.33;;
9102;SDS011;4587;51.434;6.788;2024-03-07T08:16:06;33.33;;;28.20;;
9102;SDS011;4587;51.434;6.788;2024-03-07T08:18:32;32.43;;;27.57;;
9102;SDS011;4587;51.434;6.788;2024-03-07T08:20:58;30.00;;;26.60;;
9102;SDS011;4587;51.434;6.788;2024-03-07T08:23:24;33.87;;;28.17;;
9102;SDS011;4587;51.434;6.788;2024-03-07T08:25:51;31.03;;;26.50;;
9102;SDS011;4587;51.434;6.788;2024-03-07T08:28:17;30.40;;;27.10;;
9102;SDS011;4587;51.434;6.788;2024-03-07T08:30:43;31.83;;;26.30;;
9102;SDS011;4587;51.434;6.788;2024-03-07T08:33:09;32.43;;;26.60;;
9102;SDS011;4587;51.434;6.788;2024-03-07T08:35:35;31.70;;;26.70;;
9102;SDS011;4587;51.434;6.788;2024-03-07T08:38:01;32.27;;;26.97;;
9102;SDS011;4587;51.434;6.788;2024-03-07T08:40:27;30.70;;;26.50;;
9102;SDS011;4587;51.434;6.788;2024-03-07T08:43:00;30.40;;;25.97;;
9102;SDS011;4587;51.434;6.788;2024-03-07T08:45:26;34.80;;;25.87;;
9102;SDS011;4587;51.434;6.788;2024-03-07T08:47:53;29.33;;;25.80;;
9102;SDS011;4587;51.434;6.788;2024-03-07T08:50:21;33.00;;;26.30;;
9102;SDS011;4587;51.434;6.788;2024-03-07T08:52:48;29.43;;;26.27;;
9102;SDS011;4587;51.434;6.788;2024-03-07T08:55:15;29.67;;;25.97;;
9102;SDS011;4587;51.434;6.788;2024-03-07T08:57:42;31.13;;;25.97;;
9102;SDS011;4587;51.434;6.788;2024-03-07T09:00:11;28.83;;;25.20;;
9102;SDS011;4587;51.434;6.788;2024-03-07T09:02:47;30.23;;;24.43;;
9102;SDS011;4587;51.434;6.788;2024-03-07T09:05:15;28.90;;;23.93;;
9102;SDS011;4587;51.434;6.788;2024-03-07T09:07:41;25.53;;;22.93;;
9102;SDS011;4587;51.434;6.788;2024-03-07T09:10:06;28.97;;;23.23;;
9102;SDS011;4587;51.434;6.788;2024-03-07T09:12:32;25.17;;;22.47;;
9102;SDS011;4587;51.434;6.788;2024-03-07T09:14:58;25.73;;;20.93;;
9102;SDS011;4587;51.434;6.788;2024-03-07T09:17:23;23.97;;;20.90;;
9102;SDS011;4587;51.434;6.788;2024-03-07T09:19:49;21.80;;;19.60;;
9102;SDS011;4587;51.434;6.788;2024-03-07T09:22:14;23.45;;;20.80;;
9102;SDS011;4587;51.434;6.788;2024-03-07T09:24:43;22.50;;;20.00;;
9102;SDS011;4587;51.434;6.788;2024-03-07T09:27:08;24.77;;;20.80;;
9102;SDS011;4587;51.434;6.788;2024-03-07T09:29:34;24.20;;;20.17;;
9102;SDS011;4587;51.434;6.788;2024-03-07T09:32:00;24.60;;;18.90;;
9102;SDS011;4587;51.434;6.788;2024-03-07T09:34:27;22.30;;;19.23;;
9102;SDS011;4587;51.434;6.788;2024-03-07T09:36:52;23.20;;;19.10;;
9102;SDS011;4587;51.434;6.788;2024-03-07T09:39:19;22.73;;;18.77;;
9102;SDS011;4587;51.434;6.788;2024-03-07T09:41:44;21.90;;;17.73;;
9102;SDS011;4587;51.434;6.788;2024-03-07T09:44:16;22.43;;;18.93;;
9102;SDS011;4587;51.434;6.788;2024-03-07T09:46:48;24.17;;;18.10;;
9102;SDS011;4587;51.434;6.788;2024-03-07T09:49:15;23.13;;;18.17;;
9102;SDS011;4587;51.434;6.788;2024-03-07T09:51:43;22.70;;;18.50;;
9102;SDS011;4587;51.434;6.788;2024-03-07T09:54:10;23.67;;;18.97;;
9102;SDS011;4587;51.434;6.788;2024-03-07T09:56:35;24.77;;;19.40;;
9102;SDS011;4587;51.434;6.788;2024-03-07T09:59:02;25.47;;;20.20;;
9102;SDS011;4587;51.434;6.788;2024-03-07T10:01:29;24.77;;;20.47;;
9102;SDS011;4587;51.434;6.788;2024-03-07T10:03:59;25.93;;;21.47;;
9102;SDS011;4587;51.434;6.788;2024-03-07T10:06:39;28.97;;;21.70;;
9102;SDS011;4587;51.434;6.788;2024-03-07T10:09:10;26.07;;;20.10;;
9102;SDS011;4587;51.434;6.788;2024-03-07T10:11:39;25.03;;;20.03;;
9102;SDS011;4587;51.434;6.788;2024-03-07T10:14:11;29.97;;;20.77;;
9102;SDS011;4587;51.434;6.788;2024-03-07T10:16:36;27.90;;;22.13;;
9102;SDS011;4587;51.434;6.788;2024-03-07T10:19:06;25.67;;;20.50;;
9102;SDS011;4587;51.434;6.788;2024-03-07T10:21:34;29.83;;;20.57;;
9102;SDS011;4587;51.434;6.788;2024-03-07T10:24:08;27.03;;;19.43;;
9102;SDS011;4587;51.434;6.788;2024-03-07T10:26:36;24.70;;;19.67;;
9102;SDS011;4587;51.434;6.788;2024-03-07T10:29:05;24.70;;;19.53;;
9102;SDS011;4587;51.434;6.788;2024-03-07T10:31:34;22.53;;;18.30;;
9102;SDS011;4587;51.434;6.788;2024-03-07T10:34:02;23.40;;;19.53;;
9102;SDS011;4587;51.434;6.788;2024-03-07T10:36:31;26.63;;;20.20;;
9102;SDS011;4587;51.434;6.788;2024-03-07T10:38:58;22.07;;;18.47;;
9102;SDS011;4587;51.434;6.788;2024-03-07T10:41:37;24.13;;;18.73;;
9102;SDS011;4587;51.434;6.788;2024-03-07T10:44:13;24.40;;;18.03;;
9102;SDS011;4587;51.434;6.788;2024-03-07T10:47:06;23.07;;;18.77;;
9102;SDS011;4587;51.434;6.788;2024-03-07T10:49:33;21.43;;;17.47;;
9102;SDS011;4587;51.434;6.788;2024-03-07T10:55:00;23.10;;;18.17;;
9102;SDS011;4587;51.434;6.788;2024-03-07T11:00:20;24.10;;;17.77;;
9102;SDS011;4587;51.434;6.788;2024-03-07T11:03:00;22.77;;;17.70;;
9102;SDS011;4587;51.434;6.788;2024-03-07T11:05:32;24.57;;;18.50;;
9102;SDS011;4587;51.434;6.788;2024-03-07T11:07:58;20.23;;;16.97;;
9102;SDS011;4587;51.434;6.788;2024-03-07T11:10:28;25.50;;;18.17;;
9102;SDS011;4587;51.434;6.788;2024-03-07T11:12:55;23.43;;;17.67;;
9102;SDS011;4587;51.434;6.788;2024-03-07T11:15:23;20.33;;;16.53;;
9102;SDS011;4587;51.434;6.788;2024-03-07T11:17:51;21.40;;;18.43;;
9102;SDS011;4587;51.434;6.788;2024-03-07T11:22:51;23.03;;;17.90;;
9102;SDS011;4587;51.434;6.788;2024-03-07T11:25:20;22.30;;;18.47;;
9102;SDS011;4587;51.434;6.788;2024-03-07T11:27:50;23.67;;;18.03;;
9102;SDS011;4587;51.434;6.788;2024-03-07T11:30:21;22.67;;;18.30;;
9102;SDS011;4587;51.434;6.788;2024-03-07T11:32:47;21.83;;;18.23;;
9102;SDS011;4587;51.434;6.788;2024-03-07T11:35:18;21.40;;;18.07;;
9102;SDS011;4587;51.434;6.788;2024-03-07T11:37:50;21.90;;;18.73;;
9102;SDS011;4587;51.434;6.788;2024-03-07T11:42:49;21.20;;;17.73;;
9102;SDS011;4587;51.434;6.788;2024-03-07T11:45:19;20.37;;;17.97;;
9102;SDS011;4587;51.434;6.788;2024-03-07T11:47:55;20.77;;;17.57;;
9102;SDS011;4587;51.434;6.788;2024-03-07T11:50:37;19.43;;;17.17;;
9102;SDS011;4587;51.434;6.788;2024-03-07T11:53:05;21.03;;;17.03;;
9102;SDS011;4587;51.434;6.788;2024-03-07T11:55:35;19.33;;;17.07;;
9102;SDS011;4587;51.434;6.788;2024-03-07T11:58:17;25.03;;;18.63;;
9102;SDS011;4587;51.434;6.788;2024-03-07T12:00:46;20.40;;;17.63;;
9102;SDS011;4587;51.434;6.788;2024-03-07T12:03:13;22.33;;;17.77;;
9102;SDS011;4587;51.434;6.788;2024-03-07T12:05:45;22.03;;;18.03;;
9102;SDS011;4587;51.434;6.788;2024-03-07T12:08:11;22.20;;;18.00;;
9102;SDS011;4587;51.434;6.788;2024-03-07T12:10:37;20.70;;;17.60;;
9102;SDS011;4587;51.434;6.788;2024-03-07T12:13:04;20.70;;;18.23;;
9102;SDS011;4587;51.434;6.788;2024-03-07T12:15:31;24.57;;;17.80;;
9102;SDS011;4587;51.434;6.788;2024-03-07T12:17:58;21.57;;;18.53;;
9102;SDS011;4587;51.434;6.788;2024-03-07T12:20:26;23.07;;;18.00;;
9102;SDS011;4587;51.434;6.788;2024-03-07T12:22:56;20.20;;;18.00;;
9102;SDS011;4587;51.434;6.788;2024-03-07T12:25:22;25.07;;;18.60;;
9102;SDS011;4587;51.434;6.788;2024-03-07T12:28:05;22.90;;;18.07;;
9102;SDS011;4587;51.434;6.788;2024-03-07T12:30:34;24.00;;;17.93;;
9102;SDS011;4587;51.434;6.788;2024-03-07T12:33:03;20.33;;;17.50;;
9102;SDS011;4587;51.434;6.788;2024-03-07T12:35:35;23.30;;;17.93;;
9102;SDS011;4587;51.434;6.788;2024-03-07T12:38:01;21.80;;;17.43;;
9102;SDS011;4587;51.434;6.788;2024-03-07T12:40:28;23.20;;;18.17;;
9102;SDS011;4587;51.434;6.788;2024-03-07T12:42:58;21.43;;;17.83;;
9102;SDS011;4587;51.434;6.788;2024-03-07T12:45:25;22.13;;;18.07;;
9102;SDS011;4587;51.434;6.788;2024-03-07T12:47:53;22.83;;;17.83;;
9102;SDS011;4587;51.434;6.788;2024-03-07T12:50:19;20.60;;;18.10;;
9102;SDS011;4587;51.434;6.788;2024-03-07T12:52:46;20.50;;;18.00;;
9102;SDS011;4587;51.434;6.788;2024-03-07T12:55:15;19.93;;;17.80;;
9102;SDS011;4587;51.434;6.788;2024-03-07T12:57:46;21.57;;;18.73;;
9102;SDS011;4587;51.434;6.788;2024-03-07T13:00:12;21.23;;;18.47;;
9102;SDS011;4587;51.434;6.788;2024-03-07T13:02:47;21.87;;;18.23;;
9102;SDS011;4587;51.434;6.788;2024-03-07T13:05:14;22.63;;;18.00;;
9102;SDS011;4587;51.434;6.788;2024-03-07T13:07:50;22.17;;;17.90;;
9102;SDS011;4587;51.434;6.788;2024-03-07T13:10:17;20.50;;;17.90;;
9102;SDS011;4587;51.434;6.788;2024-03-07T13:12:45;22.13;;;18.93;;
9102;SDS011;4587;51.434;6.788;2024-03-07T13:15:14;20.80;;;18.53;;
9102;SDS011;4587;51.434;6.788;2024-03-07T13:17:40;21.50;;;18.40;;
9102;SDS011;4587;51.434;6.788;2024-03-07T13:20:08;21.80;;;18.33;;
9102;SDS011;4587;51.434;6.788;2024-03-07T13:22:43;20.47;;;17.63;;
9102;SDS011;4587;51.434;6.788;2024-03-07T13:25:16;20.50;;;18.27;;
9102;SDS011;4587;51.434;6.788;2024-03-07T13:27:52;20.30;;;18.17;;
9102;SDS011;4587;51.434;6.788;2024-03-07T13:30:26;21.23;;;17.83;;
9102;SDS011;4587;51.434;6.788;2024-03-07T13:32:55;20.13;;;17.17;;
9102;SDS011;4587;51.434;6.788;2024-03-07T13:35:24;20.70;;;18.40;;
9102;SDS011;4587;51.434;6.788;2024-03-07T13:37:51;19.60;;;17.50;;
9102;SDS011;4587;51.434;6.788;2024-03-07T13:40:20;21.50;;;17.90;;
9102;SDS011;4587;51.434;6.788;2024-03-07T13:42:52;20.60;;;17.50;;
9102;SDS011;4587;51.434;6.788;2024-03-07T13:45:23;20.30;;;17.17;;
9102;SDS011;4587;51.434;6.788;2024-03-07T13:47:56;20.30;;;18.10;;
9102;SDS011;4587;51.434;6.788;2024-03-07T13:50:24;20.60;;;17.43;;
9102;SDS011;4587;51.434;6.788;2024-03-07T13:52:53;20.23;;;17.00;;
9102;SDS011;4587;51.434;6.788;2024-03-07T13:55:31;21.17;;;16.63;;
9102;SDS011;4587;51.434;6.788;2024-03-07T13:58:01;19.60;;;17.00;;
9102;SDS011;4587;51.434;6.788;2024-03-07T14:00:48;20.70;;;16.10;;
9102;SDS011;4587;51.434;6.788;2024-03-07T14:12:13;18.20;;;14.43;;
9102;SDS011;4587;51.434;6.788;2024-03-07T14:24:03;14.83;;;13.23;;
9102;SDS011;4587;51.434;6.788;2024-03-07T14:32:49;15.33;;;11.30;;
9102;SDS011;4587;51.434;6.788;2024-03-07T14:35:23;14.47;;;11.47;;
9102;SDS011;4587;51.434;6.788;2024-03-07T14:40:50;11.90;;;10.63;;
9102;SDS011;4587;51.434;6.788;2024-03-07T14:43:17;12.50;;;10.17;;
9102;SDS011;4587;51.434;6.788;2024-03-07T14:45:44;14.87;;;11.07;;
9102;SDS011;4587;51.434;6.788;2024-03-07T14:48:11;11.97;;;10.60;;
9102;SDS011;4587;51.434;6.788;2024-03-07T14:50:42;15.27;;;10.97;;
9102;SDS011;4587;51.434;6.788;2024-03-07T14:53:09;11.60;;;10.40;;
9102;SDS011;4587;51.434;6.788;2024-03-07T14:55:38;11.47;;;9.40;;
9102;SDS011;4587;51.434;6.788;2024-03-07T14:58:04;11.77;;;9.97;;
9102;SDS011;4587;51.434;6.788;2024-03-07T15:00:33;10.90;;;9.40;;
9102;SDS011;4587;51.434;6.788;2024-03-07T15:02:58;14.73;;;9.83;;
9102;SDS011;4587;51.434;6.788;2024-03-07T15:05:25;11.57;;;9.83;;
9102;SDS011;4587;51.434;6.788;2024-03-07T15:07:52;10.77;;;8.77;;
9102;SDS011;4587;51.434;6.788;2024-03-07T15:10:19;10.43;;;9.33;;
9102;SDS011;4587;51.434;6.788;2024-03-07T15:12:51;12.23;;;9.37;;
9102;SDS011;4587;51.434;6.788;2024-03-07T15:15:17;11.40;;;8.87;;
9102;SDS011;4587;51.434;6.788;2024-03-07T15:17:44;11.60;;;8.73;;
9102;SDS011;4587;51.434;6.788;2024-03-07T15:20:11;10.50;;;8.37;;
9102;SDS011;4587;51.434;6.788;2024-03-07T15:23:00;9.73;;;8.57;;
9102;SDS011;4587;51.434;6.788;2024-03-07T15:25:27;9.83;;;8.83;;
9102;SDS011;4587;51.434;6.788;2024-03-07T15:27:55;11.57;;;8.73;;
9102;SDS011;4587;51.434;6.788;2024-03-07T15:30:22;10.43;;;8.63;;